Decoded Metar for KVPC (CARTERSVILLE in GA, USA) (IATA:VPC) | Meteo·Mobile Aviation Weather
aviador You're here:

KVPC Decoded Metar

CARTERSVILLE in GA, USA
Report Time2019-02-16 16:53:00
UTC Time2019-02-16 17:11:06
Flight Rules mvfr MVFR
Wind350° at 04 kt
W.Decomp.*RWY 01: 3.8 kt HW 1.1 kt LCW
W.Rank350° ranks 4
Current wind is below 350° avg. (6.1)
Visibility9999 m
Phenomena:N/A
Clouds:Overcast 010 Hf
Expected CloudBase > 800 ft AGL from Temp-Dew spread
Ceiling1,000 ft
Temp10°C (ISA -4)
Dew Point08°C (88% RH)
AAT8.1°C
QNH1010 hPa
Density Alt554 ft
Elevation728 ft
Report Wrong Elevation
Raw Report
METAR KVPC 161653Z AUTO 35004KT 10SM OVC010 10/08 A2983 RMK AO2 SLP095
T01000078=

Extra information for KVPC:More info

Metar Taf Metar & Taf Last 4 Metars F.Rules Stats Wind Profile Meteogram Temp Stats Airport Information Weather charts Add Link Nearby VenuesMetar ALERT Operation Metar Decoded Social comments

AIRNAV info for KVPC